sensor_id;sensor_type;location;lat;lon;timestamp;P1;durP1;ratioP1;P2;durP2;ratioP2
1925;SDS011;964;42.606;23.588;2023-05-07T00:02:03;7.53;;;6.10;;
1925;SDS011;964;42.606;23.588;2023-05-07T00:04:31;6.23;;;5.63;;
1925;SDS011;964;42.606;23.588;2023-05-07T00:07:01;7.63;;;5.87;;
1925;SDS011;964;42.606;23.588;2023-05-07T00:09:28;6.70;;;5.10;;
1925;SDS011;964;42.606;23.588;2023-05-07T00:11:55;5.97;;;5.37;;
1925;SDS011;964;42.606;23.588;2023-05-07T00:14:21;11.10;;;5.20;;
1925;SDS011;964;42.606;23.588;2023-05-07T00:16:48;7.10;;;6.07;;
1925;SDS011;964;42.606;23.588;2023-05-07T00:19:15;8.00;;;6.03;;
1925;SDS011;964;42.606;23.588;2023-05-07T00:21:43;8.97;;;5.73;;
1925;SDS011;964;42.606;23.588;2023-05-07T00:24:10;10.00;;;6.97;;
1925;SDS011;964;42.606;23.588;2023-05-07T00:26:36;7.63;;;6.20;;
1925;SDS011;964;42.606;23.588;2023-05-07T00:29:03;10.37;;;7.00;;
1925;SDS011;964;42.606;23.588;2023-05-07T00:31:30;8.47;;;6.40;;
1925;SDS011;964;42.606;23.588;2023-05-07T00:33:56;12.37;;;7.37;;
1925;SDS011;964;42.606;23.588;2023-05-07T00:36:23;8.90;;;6.33;;
1925;SDS011;964;42.606;23.588;2023-05-07T00:38:53;10.07;;;6.13;;
1925;SDS011;964;42.606;23.588;2023-05-07T00:41:21;8.97;;;6.47;;
1925;SDS011;964;42.606;23.588;2023-05-07T00:43:48;6.30;;;5.70;;
1925;SDS011;964;42.606;23.588;2023-05-07T00:46:16;7.13;;;6.03;;
1925;SDS011;964;42.606;23.588;2023-05-07T00:48:44;7.20;;;6.27;;
1925;SDS011;964;42.606;23.588;2023-05-07T00:51:11;7.23;;;6.40;;
1925;SDS011;964;42.606;23.588;2023-05-07T00:53:38;6.50;;;5.90;;
1925;SDS011;964;42.606;23.588;2023-05-07T00:56:07;6.40;;;5.73;;
1925;SDS011;964;42.606;23.588;2023-05-07T00:58:34;7.90;;;6.43;;
1925;SDS011;964;42.606;23.588;2023-05-07T01:01:01;6.57;;;5.93;;
1925;SDS011;964;42.606;23.588;2023-05-07T01:03:28;11.07;;;7.40;;
1925;SDS011;964;42.606;23.588;2023-05-07T01:05:55;10.97;;;7.37;;
1925;SDS011;964;42.606;23.588;2023-05-07T01:08:24;6.90;;;6.10;;
1925;SDS011;964;42.606;23.588;2023-05-07T01:10:53;10.50;;;6.30;;
1925;SDS011;964;42.606;23.588;2023-05-07T01:13:22;9.00;;;7.70;;
1925;SDS011;964;42.606;23.588;2023-05-07T01:15:50;6.03;;;5.50;;
1925;SDS011;964;42.606;23.588;2023-05-07T01:18:17;10.77;;;8.07;;
1925;SDS011;964;42.606;23.588;2023-05-07T01:20:44;11.00;;;7.47;;
1925;SDS011;964;42.606;23.588;2023-05-07T01:23:12;10.57;;;7.57;;
1925;SDS011;964;42.606;23.588;2023-05-07T01:25:39;14.83;;;8.23;;
1925;SDS011;964;42.606;23.588;2023-05-07T01:28:06;8.57;;;6.13;;
1925;SDS011;964;42.606;23.588;2023-05-07T01:30:32;13.50;;;9.90;;
1925;SDS011;964;42.606;23.588;2023-05-07T01:33:01;13.50;;;10.40;;
1925;SDS011;964;42.606;23.588;2023-05-07T01:35:32;12.10;;;9.43;;
1925;SDS011;964;42.606;23.588;2023-05-07T01:38:02;14.60;;;11.07;;
1925;SDS011;964;42.606;23.588;2023-05-07T01:40:32;17.13;;;11.63;;
1925;SDS011;964;42.606;23.588;2023-05-07T01:43:00;18.63;;;13.97;;
1925;SDS011;964;42.606;23.588;2023-05-07T01:45:28;21.90;;;14.90;;
1925;SDS011;964;42.606;23.588;2023-05-07T01:47:56;19.07;;;13.70;;
1925;SDS011;964;42.606;23.588;2023-05-07T01:50:24;18.83;;;13.70;;
1925;SDS011;964;42.606;23.588;2023-05-07T01:52:52;22.20;;;13.90;;
1925;SDS011;964;42.606;23.588;2023-05-07T01:55:18;20.57;;;14.13;;
1925;SDS011;964;42.606;23.588;2023-05-07T01:57:46;20.57;;;13.90;;
1925;SDS011;964;42.606;23.588;2023-05-07T02:00:13;20.70;;;15.00;;
1925;SDS011;964;42.606;23.588;2023-05-07T02:02:40;18.63;;;13.80;;
1925;SDS011;964;42.606;23.588;2023-05-07T02:05:07;21.83;;;14.20;;
1925;SDS011;964;42.606;23.588;2023-05-07T02:07:34;17.73;;;12.80;;
1925;SDS011;964;42.606;23.588;2023-05-07T02:10:01;21.87;;;13.87;;
1925;SDS011;964;42.606;23.588;2023-05-07T02:12:28;20.40;;;13.10;;
1925;SDS011;964;42.606;23.588;2023-05-07T02:14:56;20.93;;;14.93;;
1925;SDS011;964;42.606;23.588;2023-05-07T02:17:23;21.97;;;14.63;;
1925;SDS011;964;42.606;23.588;2023-05-07T02:19:50;21.97;;;14.70;;
1925;SDS011;964;42.606;23.588;2023-05-07T02:22:17;22.20;;;15.50;;
1925;SDS011;964;42.606;23.588;2023-05-07T02:24:44;15.80;;;12.30;;
1925;SDS011;964;42.606;23.588;2023-05-07T02:27:11;28.77;;;18.43;;
1925;SDS011;964;42.606;23.588;2023-05-07T02:29:37;22.03;;;15.80;;
1925;SDS011;964;42.606;23.588;2023-05-07T02:32:05;21.30;;;13.07;;
1925;SDS011;964;42.606;23.588;2023-05-07T02:34:32;23.70;;;15.77;;
1925;SDS011;964;42.606;23.588;2023-05-07T02:36:59;21.87;;;15.60;;
1925;SDS011;964;42.606;23.588;2023-05-07T02:39:26;19.87;;;14.83;;
1925;SDS011;964;42.606;23.588;2023-05-07T02:41:53;25.70;;;17.80;;
1925;SDS011;964;42.606;23.588;2023-05-07T02:44:19;23.43;;;17.17;;
1925;SDS011;964;42.606;23.588;2023-05-07T02:46:46;21.80;;;15.03;;
1925;SDS011;964;42.606;23.588;2023-05-07T02:49:14;20.93;;;15.03;;
1925;SDS011;964;42.606;23.588;2023-05-07T02:51:41;19.70;;;12.83;;
1925;SDS011;964;42.606;23.588;2023-05-07T02:54:08;21.73;;;13.83;;
1925;SDS011;964;42.606;23.588;2023-05-07T02:56:34;23.20;;;16.67;;
1925;SDS011;964;42.606;23.588;2023-05-07T02:59:01;21.57;;;15.93;;
1925;SDS011;964;42.606;23.588;2023-05-07T03:01:28;22.73;;;16.10;;
1925;SDS011;964;42.606;23.588;2023-05-07T03:03:54;20.20;;;15.57;;
1925;SDS011;964;42.606;23.588;2023-05-07T03:06:23;22.97;;;15.80;;
1925;SDS011;964;42.606;23.588;2023-05-07T03:08:49;18.07;;;13.93;;
1925;SDS011;964;42.606;23.588;2023-05-07T03:11:16;22.23;;;12.80;;
1925;SDS011;964;42.606;23.588;2023-05-07T03:13:43;22.37;;;15.67;;
1925;SDS011;964;42.606;23.588;2023-05-07T03:16:10;21.60;;;15.20;;
1925;SDS011;964;42.606;23.588;2023-05-07T03:18:36;19.90;;;15.53;;
1925;SDS011;964;42.606;23.588;2023-05-07T03:21:03;19.90;;;14.63;;
1925;SDS011;964;42.606;23.588;2023-05-07T03:23:31;20.73;;;15.20;;
1925;SDS011;964;42.606;23.588;2023-05-07T03:25:58;23.30;;;15.07;;
1925;SDS011;964;42.606;23.588;2023-05-07T03:28:24;24.70;;;16.20;;
1925;SDS011;964;42.606;23.588;2023-05-07T03:30:51;23.07;;;16.83;;
1925;SDS011;964;42.606;23.588;2023-05-07T03:33:18;23.97;;;16.07;;
1925;SDS011;964;42.606;23.588;2023-05-07T03:35:45;20.73;;;14.90;;
1925;SDS011;964;42.606;23.588;2023-05-07T03:38:11;20.93;;;14.07;;
1925;SDS011;964;42.606;23.588;2023-05-07T03:40:39;25.07;;;15.90;;
1925;SDS011;964;42.606;23.588;2023-05-07T03:43:06;20.33;;;15.23;;
1925;SDS011;964;42.606;23.588;2023-05-07T03:45:33;20.83;;;13.07;;
1925;SDS011;964;42.606;23.588;2023-05-07T03:48:00;22.40;;;13.10;;
1925;SDS011;964;42.606;23.588;2023-05-07T03:50:26;18.03;;;13.77;;
1925;SDS011;964;42.606;23.588;2023-05-07T03:52:53;21.80;;;14.77;;
1925;SDS011;964;42.606;23.588;2023-05-07T03:55:20;23.43;;;14.50;;
1925;SDS011;964;42.606;23.588;2023-05-07T03:57:48;22.60;;;15.50;;
1925;SDS011;964;42.606;23.588;2023-05-07T04:00:14;21.77;;;15.70;;
1925;SDS011;964;42.606;23.588;2023-05-07T04:02:41;22.93;;;16.93;;
1925;SDS011;964;42.606;23.588;2023-05-07T04:05:08;19.40;;;14.80;;
1925;SDS011;964;42.606;23.588;2023-05-07T04:07:34;16.93;;;13.93;;
1925;SDS011;964;42.606;23.588;2023-05-07T04:10:01;18.47;;;14.20;;
1925;SDS011;964;42.606;23.588;2023-05-07T04:12:28;18.00;;;15.27;;
1925;SDS011;964;42.606;23.588;2023-05-07T04:14:56;19.80;;;15.00;;
1925;SDS011;964;42.606;23.588;2023-05-07T04:17:23;17.50;;;12.93;;
1925;SDS011;964;42.606;23.588;2023-05-07T04:19:50;19.70;;;13.87;;
1925;SDS011;964;42.606;23.588;2023-05-07T04:22:16;20.20;;;13.40;;
1925;SDS011;964;42.606;23.588;2023-05-07T04:24:43;22.27;;;14.37;;
1925;SDS011;964;42.606;23.588;2023-05-07T04:27:10;20.67;;;14.67;;
1925;SDS011;964;42.606;23.588;2023-05-07T04:29:37;22.00;;;12.60;;
1925;SDS011;964;42.606;23.588;2023-05-07T04:32:08;18.33;;;13.27;;
1925;SDS011;964;42.606;23.588;2023-05-07T04:34:35;19.87;;;13.23;;
1925;SDS011;964;42.606;23.588;2023-05-07T04:37:01;15.87;;;11.93;;
1925;SDS011;964;42.606;23.588;2023-05-07T04:39:28;16.50;;;12.30;;
1925;SDS011;964;42.606;23.588;2023-05-07T04:41:55;15.73;;;12.47;;
1925;SDS011;964;42.606;23.588;2023-05-07T04:44:21;15.80;;;12.30;;
1925;SDS011;964;42.606;23.588;2023-05-07T04:46:48;16.77;;;12.03;;
1925;SDS011;964;42.606;23.588;2023-05-07T04:49:16;18.30;;;11.73;;
1925;SDS011;964;42.606;23.588;2023-05-07T04:51:43;13.40;;;10.73;;
1925;SDS011;964;42.606;23.588;2023-05-07T04:54:10;14.57;;;11.97;;
1925;SDS011;964;42.606;23.588;2023-05-07T04:56:36;14.30;;;10.53;;
1925;SDS011;964;42.606;23.588;2023-05-07T04:59:03;14.70;;;11.70;;
1925;SDS011;964;42.606;23.588;2023-05-07T05:01:30;14.47;;;10.77;;
1925;SDS011;964;42.606;23.588;2023-05-07T05:03:57;13.50;;;10.50;;
1925;SDS011;964;42.606;23.588;2023-05-07T05:06:26;11.50;;;10.30;;
1925;SDS011;964;42.606;23.588;2023-05-07T05:08:53;11.50;;;10.30;;
1925;SDS011;964;42.606;23.588;2023-05-07T05:11:19;14.40;;;11.50;;
1925;SDS011;964;42.606;23.588;2023-05-07T05:13:46;17.57;;;10.37;;
1925;SDS011;964;42.606;23.588;2023-05-07T05:16:14;15.43;;;11.20;;
1925;SDS011;964;42.606;23.588;2023-05-07T05:18:40;12.17;;;10.17;;
1925;SDS011;964;42.606;23.588;2023-05-07T05:21:07;12.97;;;10.23;;
1925;SDS011;964;42.606;23.588;2023-05-07T05:23:35;16.20;;;9.93;;
1925;SDS011;964;42.606;23.588;2023-05-07T05:26:02;11.83;;;10.27;;
1925;SDS011;964;42.606;23.588;2023-05-07T05:28:29;13.83;;;10.90;;
1925;SDS011;964;42.606;23.588;2023-05-07T05:30:55;14.30;;;9.20;;
1925;SDS011;964;42.606;23.588;2023-05-07T05:33:22;14.73;;;10.10;;
1925;SDS011;964;42.606;23.588;2023-05-07T05:35:49;13.57;;;10.80;;
1925;SDS011;964;42.606;23.588;2023-05-07T05:38:15;14.50;;;10.97;;
1925;SDS011;964;42.606;23.588;2023-05-07T05:40:44;13.40;;;9.70;;
1925;SDS011;964;42.606;23.588;2023-05-07T05:43:10;12.03;;;10.40;;
1925;SDS011;964;42.606;23.588;2023-05-07T05:45:37;11.90;;;9.73;;
1925;SDS011;964;42.606;23.588;2023-05-07T05:48:04;12.17;;;10.63;;
1925;SDS011;964;42.606;23.588;2023-05-07T05:50:31;12.13;;;9.43;;
1925;SDS011;964;42.606;23.588;2023-05-07T05:52:58;12.50;;;9.97;;
1925;SDS011;964;42.606;23.588;2023-05-07T05:55:25;10.80;;;9.47;;
1925;SDS011;964;42.606;23.588;2023-05-07T05:57:53;12.43;;;10.53;;
1925;SDS011;964;42.606;23.588;2023-05-07T06:00:20;13.80;;;10.70;;
1925;SDS011;964;42.606;23.588;2023-05-07T06:02:47;11.40;;;10.10;;
1925;SDS011;964;42.606;23.588;2023-05-07T06:05:14;12.67;;;10.77;;
1925;SDS011;964;42.606;23.588;2023-05-07T06:07:41;11.23;;;10.03;;
1925;SDS011;964;42.606;23.588;2023-05-07T06:10:08;10.60;;;9.27;;
1925;SDS011;964;42.606;23.588;2023-05-07T06:12:35;13.33;;;9.90;;
1925;SDS011;964;42.606;23.588;2023-05-07T06:15:03;10.10;;;9.20;;
1925;SDS011;964;42.606;23.588;2023-05-07T06:17:30;12.10;;;10.70;;
1925;SDS011;964;42.606;23.588;2023-05-07T06:19:57;11.43;;;9.80;;
1925;SDS011;964;42.606;23.588;2023-05-07T06:22:24;11.67;;;10.47;;
1925;SDS011;964;42.606;23.588;2023-05-07T06:24:50;13.57;;;10.17;;
1925;SDS011;964;42.606;23.588;2023-05-07T06:27:17;13.57;;;10.23;;
1925;SDS011;964;42.606;23.588;2023-05-07T06:29:43;12.77;;;9.27;;
1925;SDS011;964;42.606;23.588;2023-05-07T06:32:12;12.90;;;9.83;;
1925;SDS011;964;42.606;23.588;2023-05-07T06:34:40;13.00;;;10.40;;
1925;SDS011;964;42.606;23.588;2023-05-07T06:37:07;11.47;;;10.27;;
1925;SDS011;964;42.606;23.588;2023-05-07T06:39:33;11.40;;;9.60;;
1925;SDS011;964;42.606;23.588;2023-05-07T06:42:00;14.67;;;11.57;;
1925;SDS011;964;42.606;23.588;2023-05-07T06:44:27;11.47;;;9.87;;
1925;SDS011;964;42.606;23.588;2023-05-07T06:46:54;11.70;;;10.50;;
1925;SDS011;964;42.606;23.588;2023-05-07T06:49:22;13.47;;;10.30;;
1925;SDS011;964;42.606;23.588;2023-05-07T06:51:49;11.47;;;9.50;;
1925;SDS011;964;42.606;23.588;2023-05-07T06:54:16;16.83;;;11.50;;
1925;SDS011;964;42.606;23.588;2023-05-07T06:56:42;12.43;;;10.93;;
1925;SDS011;964;42.606;23.588;2023-05-07T06:59:09;11.37;;;10.27;;
1925;SDS011;964;42.606;23.588;2023-05-07T07:01:36;13.87;;;10.30;;
1925;SDS011;964;42.606;23.588;2023-05-07T07:04:02;10.70;;;9.50;;
1925;SDS011;964;42.606;23.588;2023-05-07T07:06:31;12.33;;;10.40;;
1925;SDS011;964;42.606;23.588;2023-05-07T07:08:58;10.90;;;9.40;;
1925;SDS011;964;42.606;23.588;2023-05-07T07:11:25;12.30;;;10.50;;
1925;SDS011;964;42.606;23.588;2023-05-07T07:13:52;11.17;;;10.07;;
1925;SDS011;964;42.606;23.588;2023-05-07T07:16:19;13.27;;;10.90;;
1925;SDS011;964;42.606;23.588;2023-05-07T07:18:46;12.90;;;10.80;;
1925;SDS011;964;42.606;23.588;2023-05-07T07:21:13;13.23;;;10.30;;
1925;SDS011;964;42.606;23.588;2023-05-07T07:23:41;11.67;;;10.47;;
1925;SDS011;964;42.606;23.588;2023-05-07T07:26:07;12.50;;;10.23;;
1925;SDS011;964;42.606;23.588;2023-05-07T07:28:34;12.93;;;9.13;;
1925;SDS011;964;42.606;23.588;2023-05-07T07:31:01;15.00;;;10.37;;
1925;SDS011;964;42.606;23.588;2023-05-07T07:33:27;14.03;;;11.60;;
1925;SDS011;964;42.606;23.588;2023-05-07T07:35:55;12.47;;;10.23;;
1925;SDS011;964;42.606;23.588;2023-05-07T07:38:21;13.07;;;10.47;;
1925;SDS011;964;42.606;23.588;2023-05-07T07:40:49;12.00;;;10.80;;
1925;SDS011;964;42.606;23.588;2023-05-07T07:43:16;12.23;;;9.70;;
1925;SDS011;964;42.606;23.588;2023-05-07T07:45:43;11.73;;;10.07;;
1925;SDS011;964;42.606;23.588;2023-05-07T07:48:11;12.47;;;11.00;;
1925;SDS011;964;42.606;23.588;2023-05-07T07:50:37;11.53;;;10.33;;
1925;SDS011;964;42.606;23.588;2023-05-07T07:53:04;11.90;;;10.53;;
1925;SDS011;964;42.606;23.588;2023-05-07T07:55:31;11.60;;;10.40;;
1925;SDS011;964;42.606;23.588;2023-05-07T07:57:59;15.23;;;12.33;;
1925;SDS011;964;42.606;23.588;2023-05-07T08:00:26;11.00;;;9.37;;
1925;SDS011;964;42.606;23.588;2023-05-07T08:02:52;11.20;;;10.00;;
1925;SDS011;964;42.606;23.588;2023-05-07T08:05:19;11.47;;;9.90;;
1925;SDS011;964;42.606;23.588;2023-05-07T08:07:46;14.83;;;10.50;;
1925;SDS011;964;42.606;23.588;2023-05-07T08:10:16;12.10;;;10.40;;
1925;SDS011;964;42.606;23.588;2023-05-07T08:12:46;11.80;;;10.30;;
1925;SDS011;964;42.606;23.588;2023-05-07T08:15:15;10.87;;;9.60;;
1925;SDS011;964;42.606;23.588;2023-05-07T08:17:42;9.80;;;8.80;;
1925;SDS011;964;42.606;23.588;2023-05-07T08:20:09;10.30;;;9.00;;
1925;SDS011;964;42.606;23.588;2023-05-07T08:22:36;12.10;;;10.60;;
1925;SDS011;964;42.606;23.588;2023-05-07T08:25:04;10.50;;;9.40;;
1925;SDS011;964;42.606;23.588;2023-05-07T08:27:31;9.10;;;8.30;;
1925;SDS011;964;42.606;23.588;2023-05-07T08:29:57;10.60;;;8.87;;
1925;SDS011;964;42.606;23.588;2023-05-07T08:32:27;9.10;;;8.23;;
1925;SDS011;964;42.606;23.588;2023-05-07T08:34:53;9.50;;;7.60;;
1925;SDS011;964;42.606;23.588;2023-05-07T08:37:20;8.47;;;7.67;;
1925;SDS011;964;42.606;23.588;2023-05-07T08:39:47;9.40;;;8.00;;
1925;SDS011;964;42.606;23.588;2023-05-07T08:42:14;8.47;;;7.30;;
1925;SDS011;964;42.606;23.588;2023-05-07T08:44:44;9.53;;;8.17;;
1925;SDS011;964;42.606;23.588;2023-05-07T08:47:12;9.10;;;7.93;;
1925;SDS011;964;42.606;23.588;2023-05-07T08:49:40;8.50;;;7.70;;
1925;SDS011;964;42.606;23.588;2023-05-07T08:52:06;7.93;;;7.13;;
1925;SDS011;964;42.606;23.588;2023-05-07T08:54:33;7.47;;;6.63;;
1925;SDS011;964;42.606;23.588;2023-05-07T08:57:01;8.53;;;7.73;;
1925;SDS011;964;42.606;23.588;2023-05-07T08:59:28;7.90;;;7.17;;
1925;SDS011;964;42.606;23.588;2023-05-07T09:01:55;7.77;;;6.57;;
1925;SDS011;964;42.606;23.588;2023-05-07T09:04:21;8.70;;;6.63;;
1925;SDS011;964;42.606;23.588;2023-05-07T09:06:50;7.53;;;6.83;;
1925;SDS011;964;42.606;23.588;2023-05-07T09:09:16;7.03;;;6.33;;
1925;SDS011;964;42.606;23.588;2023-05-07T09:11:44;7.53;;;6.83;;
1925;SDS011;964;42.606;23.588;2023-05-07T09:14:11;7.60;;;5.27;;
1925;SDS011;964;42.606;23.588;2023-05-07T09:16:38;5.93;;;5.17;;
1925;SDS011;964;42.606;23.588;2023-05-07T09:19:04;7.23;;;5.47;;
1925;SDS011;964;42.606;23.588;2023-05-07T09:21:31;5.40;;;4.90;;
1925;SDS011;964;42.606;23.588;2023-05-07T09:23:59;5.30;;;4.80;;
1925;SDS011;964;42.606;23.588;2023-05-07T09:26:25;5.93;;;4.90;;
1925;SDS011;964;42.606;23.588;2023-05-07T09:28:53;4.20;;;3.80;;
1925;SDS011;964;42.606;23.588;2023-05-07T09:31:19;4.37;;;3.97;;
1925;SDS011;964;42.606;23.588;2023-05-07T09:33:48;3.53;;;2.90;;
1925;SDS011;964;42.606;23.588;2023-05-07T09:36:15;4.00;;;3.60;;
1925;SDS011;964;42.606;23.588;2023-05-07T09:38:42;5.90;;;4.43;;
1925;SDS011;964;42.606;23.588;2023-05-07T09:41:10;3.90;;;3.60;;
1925;SDS011;964;42.606;23.588;2023-05-07T09:43:38;4.53;;;3.87;;
1925;SDS011;964;42.606;23.588;2023-05-07T09:46:06;4.03;;;3.63;;
1925;SDS011;964;42.606;23.588;2023-05-07T09:48:35;4.03;;;3.53;;
1925;SDS011;964;42.606;23.588;2023-05-07T09:51:05;4.80;;;3.90;;
1925;SDS011;964;42.606;23.588;2023-05-07T09:53:37;3.50;;;3.20;;
1925;SDS011;964;42.606;23.588;2023-05-07T09:56:06;3.33;;;3.03;;
1925;SDS011;964;42.606;23.588;2023-05-07T09:58:34;3.17;;;2.97;;
1925;SDS011;964;42.606;23.588;2023-05-07T10:01:03;3.50;;;3.20;;
1925;SDS011;964;42.606;23.588;2023-05-07T10:03:31;4.33;;;3.43;;
1925;SDS011;964;42.606;23.588;2023-05-07T10:06:01;3.30;;;3.00;;
1925;SDS011;964;42.606;23.588;2023-05-07T10:08:30;3.90;;;2.97;;
1925;SDS011;964;42.606;23.588;2023-05-07T10:10:57;3.97;;;3.57;;
1925;SDS011;964;42.606;23.588;2023-05-07T10:13:23;3.27;;;2.93;;
1925;SDS011;964;42.606;23.588;2023-05-07T10:15:52;3.50;;;3.20;;
1925;SDS011;964;42.606;23.588;2023-05-07T10:18:21;5.40;;;3.07;;
1925;SDS011;964;42.606;23.588;2023-05-07T10:20:54;4.03;;;3.47;;
1925;SDS011;964;42.606;23.588;2023-05-07T10:23:25;3.23;;;2.93;;
1925;SDS011;964;42.606;23.588;2023-05-07T10:25:53;3.30;;;3.10;;
1925;SDS011;964;42.606;23.588;2023-05-07T10:28:21;4.70;;;3.40;;
1925;SDS011;964;42.606;23.588;2023-05-07T10:30:55;3.30;;;3.00;;
1925;SDS011;964;42.606;23.588;2023-05-07T10:33:31;5.70;;;2.90;;
1925;SDS011;964;42.606;23.588;2023-05-07T10:36:01;3.07;;;2.77;;
1925;SDS011;964;42.606;23.588;2023-05-07T10:38:29;4.00;;;3.00;;
1925;SDS011;964;42.606;23.588;2023-05-07T10:40:57;3.50;;;2.80;;
1925;SDS011;964;42.606;23.588;2023-05-07T10:43:24;3.70;;;3.40;;
1925;SDS011;964;42.606;23.588;2023-05-07T10:46:10;3.57;;;3.27;;
1925;SDS011;964;42.606;23.588;2023-05-07T10:51:33;3.50;;;3.20;;
1925;SDS011;964;42.606;23.588;2023-05-07T10:56:50;4.30;;;3.63;;
1925;SDS011;964;42.606;23.588;2023-05-07T10:59:30;3.40;;;3.20;;
1925;SDS011;964;42.606;23.588;2023-05-07T11:02:08;19.93;;;4.33;;
1925;SDS011;964;42.606;23.588;2023-05-07T11:04:36;3.70;;;3.40;;
1925;SDS011;964;42.606;23.588;2023-05-07T11:09:58;5.30;;;3.43;;
1925;SDS011;964;42.606;23.588;2023-05-07T11:15:37;3.73;;;3.20;;
1925;SDS011;964;42.606;23.588;2023-05-07T11:18:08;3.80;;;3.33;;
1925;SDS011;964;42.606;23.588;2023-05-07T11:20:45;5.43;;;3.73;;
1925;SDS011;964;42.606;23.588;2023-05-07T11:26:21;4.57;;;3.60;;
1925;SDS011;964;42.606;23.588;2023-05-07T11:28:48;3.30;;;3.00;;
1925;SDS011;964;42.606;23.588;2023-05-07T11:31:17;3.67;;;3.40;;
1925;SDS011;964;42.606;23.588;2023-05-07T11:33:50;6.07;;;3.77;;
1925;SDS011;964;42.606;23.588;2023-05-07T11:36:17;6.43;;;3.73;;
1925;SDS011;964;42.606;23.588;2023-05-07T11:38:44;3.67;;;3.37;;
1925;SDS011;964;42.606;23.588;2023-05-07T11:41:11;3.70;;;3.40;;
1925;SDS011;964;42.606;23.588;2023-05-07T11:43:38;4.10;;;3.80;;
1925;SDS011;964;42.606;23.588;2023-05-07T11:46:19;3.80;;;3.40;;
1925;SDS011;964;42.606;23.588;2023-05-07T11:48:46;3.83;;;3.50;;
1925;SDS011;964;42.606;23.588;2023-05-07T11:51:15;4.10;;;3.70;;
1925;SDS011;964;42.606;23.588;2023-05-07T11:53:45;3.70;;;3.40;;
1925;SDS011;964;42.606;23.588;2023-05-07T11:56:12;4.30;;;3.90;;
1925;SDS011;964;42.606;23.588;2023-05-07T11:58:40;4.67;;;3.67;;
1925;SDS011;964;42.606;23.588;2023-05-07T12:01:08;3.73;;;3.33;;
1925;SDS011;964;42.606;23.588;2023-05-07T12:03:36;3.80;;;3.50;;
1925;SDS011;964;42.606;23.588;2023-05-07T12:06:05;3.63;;;3.33;;
1925;SDS011;964;42.606;23.588;2023-05-07T12:08:35;3.90;;;3.60;;
1925;SDS011;964;42.606;23.588;2023-05-07T12:11:02;4.40;;;4.00;;
1925;SDS011;964;42.606;23.588;2023-05-07T12:13:29;4.10;;;3.80;;
1925;SDS011;964;42.606;23.588;2023-05-07T12:15:56;3.87;;;3.60;;
1925;SDS011;964;42.606;23.588;2023-05-07T12:18:23;3.80;;;3.50;;
1925;SDS011;964;42.606;23.588;2023-05-07T12:20:50;3.60;;;3.30;;
1925;SDS011;964;42.606;23.588;2023-05-07T12:23:17;3.70;;;3.40;;
1925;SDS011;964;42.606;23.588;2023-05-07T12:25:46;6.20;;;3.90;;
1925;SDS011;964;42.606;23.588;2023-05-07T12:28:13;4.23;;;3.80;;
1925;SDS011;964;42.606;23.588;2023-05-07T12:30:40;4.27;;;3.87;;
1925;SDS011;964;42.606;23.588;2023-05-07T12:33:08;4.37;;;3.97;;
1925;SDS011;964;42.606;23.588;2023-05-07T12:35:36;4.37;;;3.97;;
1925;SDS011;964;42.606;23.588;2023-05-07T12:38:06;4.47;;;3.57;;
1925;SDS011;964;42.606;23.588;2023-05-07T12:40:37;4.43;;;3.80;;
1925;SDS011;964;42.606;23.588;2023-05-07T12:43:06;3.90;;;3.60;;
1925;SDS011;964;42.606;23.588;2023-05-07T12:45:36;4.30;;;4.00;;
1925;SDS011;964;42.606;23.588;2023-05-07T12:48:04;4.00;;;3.70;;
1925;SDS011;964;42.606;23.588;2023-05-07T12:50:31;6.90;;;4.20;;
1925;SDS011;964;42.606;23.588;2023-05-07T12:52:59;4.70;;;4.20;;
1925;SDS011;964;42.606;23.588;2023-05-07T12:55:28;4.57;;;4.17;;
1925;SDS011;964;42.606;23.588;2023-05-07T12:57:55;4.73;;;4.33;;
1925;SDS011;964;42.606;23.588;2023-05-07T13:00:37;4.93;;;4.60;;
1925;SDS011;964;42.606;23.588;2023-05-07T13:03:04;4.83;;;4.40;;
1925;SDS011;964;42.606;23.588;2023-05-07T13:05:31;5.53;;;4.70;;
1925;SDS011;964;42.606;23.588;2023-05-07T13:07:58;5.00;;;4.63;;
1925;SDS011;964;42.606;23.588;2023-05-07T13:10:25;5.03;;;4.63;;
1925;SDS011;964;42.606;23.588;2023-05-07T13:12:52;5.00;;;4.60;;
1925;SDS011;964;42.606;23.588;2023-05-07T13:15:19;4.80;;;4.40;;
1925;SDS011;964;42.606;23.588;2023-05-07T13:17:48;5.17;;;4.77;;
1925;SDS011;964;42.606;23.588;2023-05-07T13:20:15;4.80;;;4.50;;
1925;SDS011;964;42.606;23.588;2023-05-07T13:22:42;6.27;;;5.30;;
1925;SDS011;964;42.606;23.588;2023-05-07T13:25:08;5.53;;;5.13;;
1925;SDS011;964;42.606;23.588;2023-05-07T13:27:35;5.47;;;4.70;;
1925;SDS011;964;42.606;23.588;2023-05-07T13:30:02;6.47;;;5.87;;
1925;SDS011;964;42.606;23.588;2023-05-07T13:32:30;5.70;;;5.20;;
1925;SDS011;964;42.606;23.588;2023-05-07T13:34:58;8.23;;;5.10;;
1925;SDS011;964;42.606;23.588;2023-05-07T13:37:25;7.30;;;5.20;;
1925;SDS011;964;42.606;23.588;2023-05-07T13:39:52;8.70;;;5.13;;
1925;SDS011;964;42.606;23.588;2023-05-07T13:42:18;5.57;;;5.07;;
1925;SDS011;964;42.606;23.588;2023-05-07T13:44:45;6.00;;;5.43;;
1925;SDS011;964;42.606;23.588;2023-05-07T13:47:12;5.70;;;5.30;;
1925;SDS011;964;42.606;23.588;2023-05-07T13:49:38;5.10;;;4.70;;
1925;SDS011;964;42.606;23.588;2023-05-07T13:52:06;5.60;;;5.10;;
1925;SDS011;964;42.606;23.588;2023-05-07T13:54:33;5.13;;;4.73;;
1925;SDS011;964;42.606;23.588;2023-05-07T13:57:00;5.43;;;5.03;;
1925;SDS011;964;42.606;23.588;2023-05-07T13:59:26;5.83;;;5.27;;
1925;SDS011;964;42.606;23.588;2023-05-07T14:01:53;5.70;;;5.07;;
1925;SDS011;964;42.606;23.588;2023-05-07T14:04:20;4.97;;;4.57;;
1925;SDS011;964;42.606;23.588;2023-05-07T14:06:47;6.30;;;5.13;;
1925;SDS011;964;42.606;23.588;2023-05-07T14:09:15;5.83;;;5.33;;
1925;SDS011;964;42.606;23.588;2023-05-07T14:11:42;5.40;;;4.90;;
1925;SDS011;964;42.606;23.588;2023-05-07T14:14:08;5.87;;;5.33;;
1925;SDS011;964;42.606;23.588;2023-05-07T14:16:36;8.13;;;5.23;;
1925;SDS011;964;42.606;23.588;2023-05-07T14:19:03;6.27;;;5.77;;
1925;SDS011;964;42.606;23.588;2023-05-07T14:21:30;5.77;;;5.20;;
1925;SDS011;964;42.606;23.588;2023-05-07T14:23:57;5.40;;;4.90;;
1925;SDS011;964;42.606;23.588;2023-05-07T14:26:26;5.90;;;5.40;;
1925;SDS011;964;42.606;23.588;2023-05-07T14:28:53;5.87;;;5.37;;
1925;SDS011;964;42.606;23.588;2023-05-07T14:31:22;5.40;;;5.00;;
1925;SDS011;964;42.606;23.588;2023-05-07T14:33:49;5.57;;;5.07;;
1925;SDS011;964;42.606;23.588;2023-05-07T14:36:16;7.20;;;4.53;;
1925;SDS011;964;42.606;23.588;2023-05-07T14:38:45;5.10;;;4.70;;
1925;SDS011;964;42.606;23.588;2023-05-07T14:41:11;5.30;;;4.90;;
1925;SDS011;964;42.606;23.588;2023-05-07T14:43:39;5.90;;;5.40;;
1925;SDS011;964;42.606;23.588;2023-05-07T14:46:06;5.23;;;4.83;;
1925;SDS011;964;42.606;23.588;2023-05-07T14:48:33;5.87;;;5.10;;
1925;SDS011;964;42.606;23.588;2023-05-07T14:50:59;5.20;;;4.90;;
1925;SDS011;964;42.606;23.588;2023-05-07T14:53:26;6.47;;;5.83;;
1925;SDS011;964;42.606;23.588;2023-05-07T14:55:53;5.63;;;5.23;;
1925;SDS011;964;42.606;23.588;2023-05-07T14:58:20;5.50;;;5.00;;
1925;SDS011;964;42.606;23.588;2023-05-07T15:00:48;5.23;;;4.73;;
1925;SDS011;964;42.606;23.588;2023-05-07T15:03:15;5.93;;;5.40;;
1925;SDS011;964;42.606;23.588;2023-05-07T15:05:42;6.10;;;5.60;;
1925;SDS011;964;42.606;23.588;2023-05-07T15:08:08;5.63;;;5.23;;
1925;SDS011;964;42.606;23.588;2023-05-07T15:10:36;5.17;;;4.63;;
1925;SDS011;964;42.606;23.588;2023-05-07T15:13:05;5.20;;;4.70;;
1925;SDS011;964;42.606;23.588;2023-05-07T15:15:32;6.70;;;4.80;;
1925;SDS011;964;42.606;23.588;2023-05-07T15:18:00;6.57;;;5.40;;
1925;SDS011;964;42.606;23.588;2023-05-07T15:20:27;5.67;;;5.10;;